sensor_id;sensor_type;location;lat;lon;timestamp;P1;durP1;ratioP1;P2;durP2;ratioP2
4391;SDS011;2210;51.938;8.488;2024-01-15T00:00:53;7.32;;;6.03;;
4391;SDS011;2210;51.938;8.488;2024-01-15T00:04:59;7.75;;;6.20;;
4391;SDS011;2210;51.938;8.488;2024-01-15T00:09:02;8.30;;;5.20;;
4391;SDS011;2210;51.938;8.488;2024-01-15T00:13:03;7.20;;;5.37;;
4391;SDS011;2210;51.938;8.488;2024-01-15T00:17:03;6.80;;;5.47;;
4391;SDS011;2210;51.938;8.488;2024-01-15T00:21:04;7.07;;;5.70;;
4391;SDS011;2210;51.938;8.488;2024-01-15T00:25:13;7.97;;;5.50;;
4391;SDS011;2210;51.938;8.488;2024-01-15T00:29:13;8.87;;;5.30;;
4391;SDS011;2210;51.938;8.488;2024-01-15T00:33:14;6.57;;;4.97;;
4391;SDS011;2210;51.938;8.488;2024-01-15T00:37:14;7.53;;;4.53;;
4391;SDS011;2210;51.938;8.488;2024-01-15T00:41:18;7.68;;;5.07;;
4391;SDS011;2210;51.938;8.488;2024-01-15T00:45:21;5.53;;;3.90;;
4391;SDS011;2210;51.938;8.488;2024-01-15T00:49:21;4.80;;;3.93;;
4391;SDS011;2210;51.938;8.488;2024-01-15T00:53:21;7.60;;;4.00;;
4391;SDS011;2210;51.938;8.488;2024-01-15T00:57:22;5.40;;;4.07;;
4391;SDS011;2210;51.938;8.488;2024-01-15T01:01:22;4.60;;;3.50;;
4391;SDS011;2210;51.938;8.488;2024-01-15T01:05:22;5.35;;;3.72;;
4391;SDS011;2210;51.938;8.488;2024-01-15T01:09:22;4.10;;;3.42;;
4391;SDS011;2210;51.938;8.488;2024-01-15T01:13:23;6.17;;;3.67;;
4391;SDS011;2210;51.938;8.488;2024-01-15T01:17:23;6.63;;;3.40;;
4391;SDS011;2210;51.938;8.488;2024-01-15T01:21:23;4.63;;;3.60;;
4391;SDS011;2210;51.938;8.488;2024-01-15T01:25:23;4.73;;;3.20;;
4391;SDS011;2210;51.938;8.488;2024-01-15T01:29:24;4.82;;;3.03;;
4391;SDS011;2210;51.938;8.488;2024-01-15T01:33:30;5.10;;;3.77;;
4391;SDS011;2210;51.938;8.488;2024-01-15T01:37:30;3.40;;;3.10;;
4391;SDS011;2210;51.938;8.488;2024-01-15T01:41:34;5.65;;;3.88;;
4391;SDS011;2210;51.938;8.488;2024-01-15T01:45:37;3.53;;;3.00;;
4391;SDS011;2210;51.938;8.488;2024-01-15T01:49:38;4.73;;;3.97;;
4391;SDS011;2210;51.938;8.488;2024-01-15T01:53:38;8.13;;;3.87;;
4391;SDS011;2210;51.938;8.488;2024-01-15T01:57:39;7.40;;;3.50;;
4391;SDS011;2210;51.938;8.488;2024-01-15T02:01:40;7.40;;;4.23;;
4391;SDS011;2210;51.938;8.488;2024-01-15T02:05:42;4.60;;;3.90;;
4391;SDS011;2210;51.938;8.488;2024-01-15T02:09:44;8.77;;;4.40;;
4391;SDS011;2210;51.938;8.488;2024-01-15T02:13:44;8.03;;;3.70;;
4391;SDS011;2210;51.938;8.488;2024-01-15T02:18:01;6.10;;;4.33;;
4391;SDS011;2210;51.938;8.488;2024-01-15T02:22:03;6.80;;;3.77;;
4391;SDS011;2210;51.938;8.488;2024-01-15T02:26:04;7.77;;;3.87;;
4391;SDS011;2210;51.938;8.488;2024-01-15T02:30:11;5.07;;;3.60;;
4391;SDS011;2210;51.938;8.488;2024-01-15T02:34:12;4.30;;;3.90;;
4391;SDS011;2210;51.938;8.488;2024-01-15T02:38:12;6.45;;;3.92;;
4391;SDS011;2210;51.938;8.488;2024-01-15T02:42:21;5.57;;;4.10;;
4391;SDS011;2210;51.938;8.488;2024-01-15T02:46:22;5.93;;;3.90;;
4391;SDS011;2210;51.938;8.488;2024-01-15T02:50:22;6.30;;;3.50;;
4391;SDS011;2210;51.938;8.488;2024-01-15T02:54:22;4.10;;;3.50;;
4391;SDS011;2210;51.938;8.488;2024-01-15T02:58:23;5.45;;;3.40;;
4391;SDS011;2210;51.938;8.488;2024-01-15T03:02:23;5.20;;;3.67;;
4391;SDS011;2210;51.938;8.488;2024-01-15T03:06:23;6.87;;;3.43;;
4391;SDS011;2210;51.938;8.488;2024-01-15T03:10:24;7.67;;;3.30;;
4391;SDS011;2210;51.938;8.488;2024-01-15T03:14:24;5.95;;;3.60;;
4391;SDS011;2210;51.938;8.488;2024-01-15T03:18:26;5.20;;;3.10;;
4391;SDS011;2210;51.938;8.488;2024-01-15T03:22:26;11.70;;;4.22;;
4391;SDS011;2210;51.938;8.488;2024-01-15T03:26:26;8.02;;;3.97;;
4391;SDS011;2210;51.938;8.488;2024-01-15T03:30:26;6.30;;;3.47;;
4391;SDS011;2210;51.938;8.488;2024-01-15T03:34:27;5.00;;;3.90;;
4391;SDS011;2210;51.938;8.488;2024-01-15T03:38:28;9.90;;;4.03;;
4391;SDS011;2210;51.938;8.488;2024-01-15T03:42:28;8.53;;;4.23;;
4391;SDS011;2210;51.938;8.488;2024-01-15T03:46:31;5.70;;;3.78;;
4391;SDS011;2210;51.938;8.488;2024-01-15T03:50:32;8.13;;;4.90;;
4391;SDS011;2210;51.938;8.488;2024-01-15T03:54:32;9.57;;;4.45;;
4391;SDS011;2210;51.938;8.488;2024-01-15T03:58:35;5.87;;;3.50;;
4391;SDS011;2210;51.938;8.488;2024-01-15T04:02:38;5.37;;;3.17;;
4391;SDS011;2210;51.938;8.488;2024-01-15T04:06:39;6.17;;;3.20;;
4391;SDS011;2210;51.938;8.488;2024-01-15T04:10:39;7.00;;;3.75;;
4391;SDS011;2210;51.938;8.488;2024-01-15T04:14:39;9.93;;;4.00;;
4391;SDS011;2210;51.938;8.488;2024-01-15T04:18:39;6.28;;;3.92;;
4391;SDS011;2210;51.938;8.488;2024-01-15T04:22:40;10.90;;;3.93;;
4391;SDS011;2210;51.938;8.488;2024-01-15T04:26:43;8.02;;;3.83;;
4391;SDS011;2210;51.938;8.488;2024-01-15T04:30:43;6.60;;;4.10;;
4391;SDS011;2210;51.938;8.488;2024-01-15T04:34:44;10.60;;;4.20;;
4391;SDS011;2210;51.938;8.488;2024-01-15T04:38:44;4.63;;;3.22;;
4391;SDS011;2210;51.938;8.488;2024-01-15T04:42:44;7.65;;;3.47;;
4391;SDS011;2210;51.938;8.488;2024-01-15T04:46:45;5.57;;;3.73;;
4391;SDS011;2210;51.938;8.488;2024-01-15T04:50:46;5.57;;;3.22;;
4391;SDS011;2210;51.938;8.488;2024-01-15T04:54:49;4.47;;;3.00;;
4391;SDS011;2210;51.938;8.488;2024-01-15T04:58:59;6.00;;;3.20;;
4391;SDS011;2210;51.938;8.488;2024-01-15T05:03:02;6.90;;;3.87;;
4391;SDS011;2210;51.938;8.488;2024-01-15T05:07:03;4.17;;;3.63;;
4391;SDS011;2210;51.938;8.488;2024-01-15T05:11:03;6.10;;;3.50;;
4391;SDS011;2210;51.938;8.488;2024-01-15T05:15:03;3.30;;;2.77;;
4391;SDS011;2210;51.938;8.488;2024-01-15T05:19:04;5.50;;;3.60;;
4391;SDS011;2210;51.938;8.488;2024-01-15T05:23:04;3.85;;;3.10;;
4391;SDS011;2210;51.938;8.488;2024-01-15T05:27:04;5.00;;;3.50;;
4391;SDS011;2210;51.938;8.488;2024-01-15T05:31:08;3.72;;;3.22;;
4391;SDS011;2210;51.938;8.488;2024-01-15T05:35:09;7.30;;;3.10;;
4391;SDS011;2210;51.938;8.488;2024-01-15T05:39:09;4.00;;;3.47;;
4391;SDS011;2210;51.938;8.488;2024-01-15T05:43:09;6.90;;;2.87;;
4391;SDS011;2210;51.938;8.488;2024-01-15T05:47:10;3.77;;;3.07;;
4391;SDS011;2210;51.938;8.488;2024-01-15T05:51:10;8.18;;;3.42;;
4391;SDS011;2210;51.938;8.488;2024-01-15T05:55:10;3.90;;;2.80;;
4391;SDS011;2210;51.938;8.488;2024-01-15T05:59:11;3.40;;;2.90;;
4391;SDS011;2210;51.938;8.488;2024-01-15T06:03:11;4.13;;;3.27;;
4391;SDS011;2210;51.938;8.488;2024-01-15T06:07:11;4.90;;;2.58;;
4391;SDS011;2210;51.938;8.488;2024-01-15T06:11:11;5.65;;;3.72;;
4391;SDS011;2210;51.938;8.488;2024-01-15T06:15:15;6.70;;;3.58;;
4391;SDS011;2210;51.938;8.488;2024-01-15T06:19:15;6.33;;;3.57;;
4391;SDS011;2210;51.938;8.488;2024-01-15T06:23:15;7.53;;;3.80;;
4391;SDS011;2210;51.938;8.488;2024-01-15T06:27:16;4.13;;;3.42;;
4391;SDS011;2210;51.938;8.488;2024-01-15T06:31:16;9.73;;;4.03;;
4391;SDS011;2210;51.938;8.488;2024-01-15T06:35:17;5.70;;;3.97;;
4391;SDS011;2210;51.938;8.488;2024-01-15T06:39:17;4.32;;;2.95;;
4391;SDS011;2210;51.938;8.488;2024-01-15T06:43:20;4.18;;;3.30;;
4391;SDS011;2210;51.938;8.488;2024-01-15T06:47:20;5.07;;;3.30;;
4391;SDS011;2210;51.938;8.488;2024-01-15T06:51:21;4.50;;;3.40;;
4391;SDS011;2210;51.938;8.488;2024-01-15T06:55:21;5.00;;;3.03;;
4391;SDS011;2210;51.938;8.488;2024-01-15T06:59:21;5.43;;;3.27;;
4391;SDS011;2210;51.938;8.488;2024-01-15T07:03:21;4.38;;;2.83;;
4391;SDS011;2210;51.938;8.488;2024-01-15T07:07:22;8.27;;;3.03;;
4391;SDS011;2210;51.938;8.488;2024-01-15T07:11:22;3.80;;;2.57;;
4391;SDS011;2210;51.938;8.488;2024-01-15T07:15:23;7.57;;;2.80;;
4391;SDS011;2210;51.938;8.488;2024-01-15T07:19:23;3.73;;;2.03;;
4391;SDS011;2210;51.938;8.488;2024-01-15T07:23:24;6.80;;;2.30;;
4391;SDS011;2210;51.938;8.488;2024-01-15T07:27:24;2.33;;;2.05;;
4391;SDS011;2210;51.938;8.488;2024-01-15T07:31:24;2.58;;;2.17;;
4391;SDS011;2210;51.938;8.488;2024-01-15T07:35:24;3.20;;;2.08;;
4391;SDS011;2210;51.938;8.488;2024-01-15T07:39:25;2.45;;;1.80;;
4391;SDS011;2210;51.938;8.488;2024-01-15T07:43:28;2.20;;;2.00;;
4391;SDS011;2210;51.938;8.488;2024-01-15T07:47:28;2.70;;;2.00;;
4391;SDS011;2210;51.938;8.488;2024-01-15T07:51:29;4.20;;;2.00;;
4391;SDS011;2210;51.938;8.488;2024-01-15T07:55:29;4.30;;;2.13;;
4391;SDS011;2210;51.938;8.488;2024-01-15T07:59:29;3.17;;;2.28;;
4391;SDS011;2210;51.938;8.488;2024-01-15T08:03:33;2.27;;;2.10;;
4391;SDS011;2210;51.938;8.488;2024-01-15T08:07:39;2.50;;;2.00;;
4391;SDS011;2210;51.938;8.488;2024-01-15T08:11:40;2.40;;;2.03;;
4391;SDS011;2210;51.938;8.488;2024-01-15T08:15:41;5.17;;;2.63;;
4391;SDS011;2210;51.938;8.488;2024-01-15T08:19:42;2.80;;;2.15;;
4391;SDS011;2210;51.938;8.488;2024-01-15T08:23:42;4.23;;;2.50;;
4391;SDS011;2210;51.938;8.488;2024-01-15T08:27:43;8.95;;;2.67;;
4391;SDS011;2210;51.938;8.488;2024-01-15T08:31:43;2.65;;;2.03;;
4391;SDS011;2210;51.938;8.488;2024-01-15T08:35:43;2.58;;;2.38;;
4391;SDS011;2210;51.938;8.488;2024-01-15T08:39:43;1.88;;;1.77;;
4391;SDS011;2210;51.938;8.488;2024-01-15T08:43:44;3.05;;;2.40;;
4391;SDS011;2210;51.938;8.488;2024-01-15T08:47:44;2.30;;;2.15;;
4391;SDS011;2210;51.938;8.488;2024-01-15T08:51:44;2.63;;;2.28;;
4391;SDS011;2210;51.938;8.488;2024-01-15T08:55:44;4.28;;;2.25;;
4391;SDS011;2210;51.938;8.488;2024-01-15T08:59:45;3.83;;;2.30;;
4391;SDS011;2210;51.938;8.488;2024-01-15T09:03:45;2.55;;;2.30;;
4391;SDS011;2210;51.938;8.488;2024-01-15T09:07:48;2.47;;;2.37;;
4391;SDS011;2210;51.938;8.488;2024-01-15T09:11:48;2.20;;;2.10;;
4391;SDS011;2210;51.938;8.488;2024-01-15T09:15:49;2.67;;;2.40;;
4391;SDS011;2210;51.938;8.488;2024-01-15T09:19:49;7.97;;;2.35;;
4391;SDS011;2210;51.938;8.488;2024-01-15T09:23:50;2.87;;;2.27;;
4391;SDS011;2210;51.938;8.488;2024-01-15T09:27:50;2.63;;;2.43;;
4391;SDS011;2210;51.938;8.488;2024-01-15T09:31:50;5.73;;;2.60;;
4391;SDS011;2210;51.938;8.488;2024-01-15T09:35:51;2.70;;;2.50;;
4391;SDS011;2210;51.938;8.488;2024-01-15T09:39:51;1.80;;;1.70;;
4391;SDS011;2210;51.938;8.488;2024-01-15T09:43:51;2.55;;;1.98;;
4391;SDS011;2210;51.938;8.488;2024-01-15T09:47:52;2.50;;;2.30;;
4391;SDS011;2210;51.938;8.488;2024-01-15T09:51:55;9.90;;;2.20;;
4391;SDS011;2210;51.938;8.488;2024-01-15T09:55:57;4.70;;;2.20;;
4391;SDS011;2210;51.938;8.488;2024-01-15T09:59:59;3.53;;;2.23;;
4391;SDS011;2210;51.938;8.488;2024-01-15T10:04:03;5.10;;;1.97;;
4391;SDS011;2210;51.938;8.488;2024-01-15T10:08:04;3.35;;;1.90;;
4391;SDS011;2210;51.938;8.488;2024-01-15T10:12:04;3.00;;;1.70;;
4391;SDS011;2210;51.938;8.488;2024-01-15T10:16:05;4.23;;;1.93;;
4391;SDS011;2210;51.938;8.488;2024-01-15T10:20:09;2.80;;;2.13;;
4391;SDS011;2210;51.938;8.488;2024-01-15T10:24:11;2.23;;;2.07;;
4391;SDS011;2210;51.938;8.488;2024-01-15T10:28:18;2.43;;;2.13;;
4391;SDS011;2210;51.938;8.488;2024-01-15T10:32:19;2.70;;;1.90;;
4391;SDS011;2210;51.938;8.488;2024-01-15T10:36:20;3.20;;;1.80;;
4391;SDS011;2210;51.938;8.488;2024-01-15T10:40:20;2.50;;;2.00;;
4391;SDS011;2210;51.938;8.488;2024-01-15T10:44:20;2.53;;;2.00;;
4391;SDS011;2210;51.938;8.488;2024-01-15T10:48:22;3.23;;;1.90;;
4391;SDS011;2210;51.938;8.488;2024-01-15T10:52:23;2.37;;;1.80;;
4391;SDS011;2210;51.938;8.488;2024-01-15T10:56:23;3.60;;;1.57;;
4391;SDS011;2210;51.938;8.488;2024-01-15T11:00:24;2.87;;;1.57;;
4391;SDS011;2210;51.938;8.488;2024-01-15T11:04:26;1.87;;;1.50;;
4391;SDS011;2210;51.938;8.488;2024-01-15T11:08:28;1.60;;;1.50;;
4391;SDS011;2210;51.938;8.488;2024-01-15T11:12:29;2.07;;;1.77;;
4391;SDS011;2210;51.938;8.488;2024-01-15T11:25:18;4.93;;;1.83;;
4391;SDS011;2210;51.938;8.488;2024-01-15T11:33:34;3.40;;;2.13;;
4391;SDS011;2210;51.938;8.488;2024-01-15T11:41:50;1.73;;;1.60;;
4391;SDS011;2210;51.938;8.488;2024-01-15T11:45:51;2.40;;;1.57;;
4391;SDS011;2210;51.938;8.488;2024-01-15T11:54:05;3.67;;;1.90;;
4391;SDS011;2210;51.938;8.488;2024-01-15T11:58:09;6.73;;;1.77;;
4391;SDS011;2210;51.938;8.488;2024-01-15T12:02:13;1.47;;;1.37;;
4391;SDS011;2210;51.938;8.488;2024-01-15T12:06:16;3.10;;;1.40;;
4391;SDS011;2210;51.938;8.488;2024-01-15T12:10:20;9.23;;;2.00;;
4391;SDS011;2210;51.938;8.488;2024-01-15T12:14:21;1.73;;;1.40;;
4391;SDS011;2210;51.938;8.488;2024-01-15T12:18:22;2.00;;;1.30;;
4391;SDS011;2210;51.938;8.488;2024-01-15T12:22:22;1.73;;;1.10;;
4391;SDS011;2210;51.938;8.488;2024-01-15T12:26:22;1.93;;;1.40;;
4391;SDS011;2210;51.938;8.488;2024-01-15T12:30:23;1.30;;;1.20;;
4391;SDS011;2210;51.938;8.488;2024-01-15T12:34:23;2.00;;;1.30;;
4391;SDS011;2210;51.938;8.488;2024-01-15T12:38:23;1.02;;;0.90;;
4391;SDS011;2210;51.938;8.488;2024-01-15T12:42:23;2.55;;;1.23;;
4391;SDS011;2210;51.938;8.488;2024-01-15T12:46:24;4.63;;;1.53;;
4391;SDS011;2210;51.938;8.488;2024-01-15T12:50:24;2.03;;;1.40;;
4391;SDS011;2210;51.938;8.488;2024-01-15T12:54:29;4.90;;;1.40;;
4391;SDS011;2210;51.938;8.488;2024-01-15T12:58:29;1.40;;;1.27;;
4391;SDS011;2210;51.938;8.488;2024-01-15T13:02:33;1.73;;;1.10;;
4391;SDS011;2210;51.938;8.488;2024-01-15T13:06:34;3.90;;;2.00;;
4391;SDS011;2210;51.938;8.488;2024-01-15T13:10:38;3.20;;;1.50;;
4391;SDS011;2210;51.938;8.488;2024-01-15T13:14:38;2.30;;;1.40;;
4391;SDS011;2210;51.938;8.488;2024-01-15T13:18:38;1.03;;;0.90;;
4391;SDS011;2210;51.938;8.488;2024-01-15T13:22:38;1.33;;;1.10;;
4391;SDS011;2210;51.938;8.488;2024-01-15T13:26:40;2.70;;;1.60;;
4391;SDS011;2210;51.938;8.488;2024-01-15T13:30:40;1.87;;;1.10;;
4391;SDS011;2210;51.938;8.488;2024-01-15T13:34:40;2.57;;;1.47;;
4391;SDS011;2210;51.938;8.488;2024-01-15T13:38:44;1.23;;;1.13;;
4391;SDS011;2210;51.938;8.488;2024-01-15T13:42:45;2.20;;;1.50;;
4391;SDS011;2210;51.938;8.488;2024-01-15T13:46:46;3.53;;;1.03;;
4391;SDS011;2210;51.938;8.488;2024-01-15T13:50:46;1.00;;;1.00;;
4391;SDS011;2210;51.938;8.488;2024-01-15T13:54:46;4.53;;;0.88;;
4391;SDS011;2210;51.938;8.488;2024-01-15T13:58:46;4.00;;;1.38;;
4391;SDS011;2210;51.938;8.488;2024-01-15T14:02:48;2.20;;;1.40;;
4391;SDS011;2210;51.938;8.488;2024-01-15T14:06:48;3.58;;;1.38;;
4391;SDS011;2210;51.938;8.488;2024-01-15T14:10:48;2.00;;;1.02;;
4391;SDS011;2210;51.938;8.488;2024-01-15T14:14:48;1.07;;;1.00;;
4391;SDS011;2210;51.938;8.488;2024-01-15T14:18:49;3.00;;;1.40;;
4391;SDS011;2210;51.938;8.488;2024-01-15T14:22:49;1.13;;;1.03;;
4391;SDS011;2210;51.938;8.488;2024-01-15T14:26:49;1.30;;;1.20;;
4391;SDS011;2210;51.938;8.488;2024-01-15T14:30:50;4.35;;;1.30;;
4391;SDS011;2210;51.938;8.488;2024-01-15T14:34:51;1.63;;;0.90;;
4391;SDS011;2210;51.938;8.488;2024-01-15T14:38:51;1.30;;;1.20;;
4391;SDS011;2210;51.938;8.488;2024-01-15T14:42:52;2.10;;;1.20;;
4391;SDS011;2210;51.938;8.488;2024-01-15T14:46:52;2.50;;;1.40;;
4391;SDS011;2210;51.938;8.488;2024-01-15T14:50:53;1.30;;;1.20;;
4391;SDS011;2210;51.938;8.488;2024-01-15T14:54:53;2.03;;;1.00;;
4391;SDS011;2210;51.938;8.488;2024-01-15T14:58:53;2.83;;;1.42;;
4391;SDS011;2210;51.938;8.488;2024-01-15T15:02:53;1.30;;;1.20;;
4391;SDS011;2210;51.938;8.488;2024-01-15T15:06:54;1.23;;;1.10;;
4391;SDS011;2210;51.938;8.488;2024-01-15T15:10:54;1.98;;;1.30;;
4391;SDS011;2210;51.938;8.488;2024-01-15T15:14:56;1.57;;;1.27;;
4391;SDS011;2210;51.938;8.488;2024-01-15T15:18:57;2.63;;;1.33;;
4391;SDS011;2210;51.938;8.488;2024-01-15T15:22:57;1.67;;;1.07;;
4391;SDS011;2210;51.938;8.488;2024-01-15T15:26:57;1.50;;;1.10;;
4391;SDS011;2210;51.938;8.488;2024-01-15T15:30:57;1.03;;;0.90;;
4391;SDS011;2210;51.938;8.488;2024-01-15T15:34:58;2.90;;;1.00;;
4391;SDS011;2210;51.938;8.488;2024-01-15T15:38:58;0.70;;;0.70;;
4391;SDS011;2210;51.938;8.488;2024-01-15T15:42:58;0.80;;;0.80;;
4391;SDS011;2210;51.938;8.488;2024-01-15T15:46:58;1.92;;;1.00;;
4391;SDS011;2210;51.938;8.488;2024-01-15T15:50:59;2.47;;;0.98;;
4391;SDS011;2210;51.938;8.488;2024-01-15T15:55:00;0.80;;;0.70;;
4391;SDS011;2210;51.938;8.488;2024-01-15T15:59:01;1.67;;;1.10;;
4391;SDS011;2210;51.938;8.488;2024-01-15T16:03:01;1.03;;;0.93;;
4391;SDS011;2210;51.938;8.488;2024-01-15T16:07:01;1.73;;;1.10;;
4391;SDS011;2210;51.938;8.488;2024-01-15T16:11:03;0.97;;;0.90;;
4391;SDS011;2210;51.938;8.488;2024-01-15T16:15:03;3.30;;;1.00;;
4391;SDS011;2210;51.938;8.488;2024-01-15T16:19:17;4.40;;;1.10;;
4391;SDS011;2210;51.938;8.488;2024-01-15T16:23:17;3.27;;;2.53;;
4391;SDS011;2210;51.938;8.488;2024-01-15T16:27:18;2.87;;;1.20;;
4391;SDS011;2210;51.938;8.488;2024-01-15T16:31:18;2.05;;;1.20;;
4391;SDS011;2210;51.938;8.488;2024-01-15T16:35:18;2.90;;;1.10;;
4391;SDS011;2210;51.938;8.488;2024-01-15T16:39:18;4.93;;;1.30;;
4391;SDS011;2210;51.938;8.488;2024-01-15T16:43:19;0.90;;;0.88;;
4391;SDS011;2210;51.938;8.488;2024-01-15T16:47:20;4.70;;;1.43;;
4391;SDS011;2210;51.938;8.488;2024-01-15T16:51:20;1.50;;;1.37;;
4391;SDS011;2210;51.938;8.488;2024-01-15T16:55:20;1.10;;;1.10;;
4391;SDS011;2210;51.938;8.488;2024-01-15T16:59:21;2.37;;;1.43;;
4391;SDS011;2210;51.938;8.488;2024-01-15T17:03:21;2.47;;;1.43;;
4391;SDS011;2210;51.938;8.488;2024-01-15T17:07:21;1.17;;;1.07;;
4391;SDS011;2210;51.938;8.488;2024-01-15T17:11:21;1.40;;;1.30;;
4391;SDS011;2210;51.938;8.488;2024-01-15T17:15:22;1.43;;;1.27;;
4391;SDS011;2210;51.938;8.488;2024-01-15T17:19:22;1.30;;;1.07;;
4391;SDS011;2210;51.938;8.488;2024-01-15T17:23:22;3.05;;;1.27;;
4391;SDS011;2210;51.938;8.488;2024-01-15T17:27:23;2.03;;;1.10;;
4391;SDS011;2210;51.938;8.488;2024-01-15T17:31:23;4.30;;;2.20;;
4391;SDS011;2210;51.938;8.488;2024-01-15T17:35:23;5.10;;;1.30;;
4391;SDS011;2210;51.938;8.488;2024-01-15T17:39:24;6.77;;;1.97;;
4391;SDS011;2210;51.938;8.488;2024-01-15T17:43:25;1.53;;;1.43;;
4391;SDS011;2210;51.938;8.488;2024-01-15T17:47:26;3.07;;;1.30;;
4391;SDS011;2210;51.938;8.488;2024-01-15T17:51:26;2.28;;;1.25;;
4391;SDS011;2210;51.938;8.488;2024-01-15T17:55:26;9.93;;;1.15;;
4391;SDS011;2210;51.938;8.488;2024-01-15T17:59:27;1.53;;;1.43;;
4391;SDS011;2210;51.938;8.488;2024-01-15T18:03:27;5.50;;;1.25;;
4391;SDS011;2210;51.938;8.488;2024-01-15T18:07:28;4.60;;;1.40;;
4391;SDS011;2210;51.938;8.488;2024-01-15T18:11:28;2.73;;;1.50;;
4391;SDS011;2210;51.938;8.488;2024-01-15T18:15:28;1.58;;;1.48;;
4391;SDS011;2210;51.938;8.488;2024-01-15T18:19:29;3.03;;;1.58;;
4391;SDS011;2210;51.938;8.488;2024-01-15T18:23:29;5.35;;;1.33;;
4391;SDS011;2210;51.938;8.488;2024-01-15T18:27:29;2.33;;;1.43;;
4391;SDS011;2210;51.938;8.488;2024-01-15T18:31:30;6.72;;;1.88;;
4391;SDS011;2210;51.938;8.488;2024-01-15T18:35:30;1.40;;;1.13;;
4391;SDS011;2210;51.938;8.488;2024-01-15T18:39:30;2.00;;;1.30;;
4391;SDS011;2210;51.938;8.488;2024-01-15T18:43:30;4.33;;;1.83;;
4391;SDS011;2210;51.938;8.488;2024-01-15T18:47:31;9.73;;;2.07;;
4391;SDS011;2210;51.938;8.488;2024-01-15T18:51:32;1.60;;;1.50;;
4391;SDS011;2210;51.938;8.488;2024-01-15T18:55:32;2.20;;;1.53;;
4391;SDS011;2210;51.938;8.488;2024-01-15T18:59:32;1.60;;;1.30;;
4391;SDS011;2210;51.938;8.488;2024-01-15T19:08:02;6.60;;;2.07;;
4391;SDS011;2210;51.938;8.488;2024-01-15T19:12:04;3.57;;;1.77;;
4391;SDS011;2210;51.938;8.488;2024-01-15T19:16:06;1.87;;;1.60;;
4391;SDS011;2210;51.938;8.488;2024-01-15T19:20:07;2.63;;;1.57;;
4391;SDS011;2210;51.938;8.488;2024-01-15T19:24:07;1.97;;;1.60;;
4391;SDS011;2210;51.938;8.488;2024-01-15T19:28:07;1.80;;;1.70;;
4391;SDS011;2210;51.938;8.488;2024-01-15T19:32:08;9.23;;;2.37;;
4391;SDS011;2210;51.938;8.488;2024-01-15T19:36:08;3.80;;;2.28;;
4391;SDS011;2210;51.938;8.488;2024-01-15T19:40:08;1.80;;;1.50;;
4391;SDS011;2210;51.938;8.488;2024-01-15T19:44:09;2.53;;;1.80;;
4391;SDS011;2210;51.938;8.488;2024-01-15T19:48:09;1.98;;;1.58;;
4391;SDS011;2210;51.938;8.488;2024-01-15T19:52:11;2.20;;;1.50;;
4391;SDS011;2210;51.938;8.488;2024-01-15T19:56:14;4.03;;;1.80;;
4391;SDS011;2210;51.938;8.488;2024-01-15T20:00:29;1.43;;;1.30;;
4391;SDS011;2210;51.938;8.488;2024-01-15T20:04:29;2.33;;;1.13;;
4391;SDS011;2210;51.938;8.488;2024-01-15T20:08:30;6.78;;;1.38;;
4391;SDS011;2210;51.938;8.488;2024-01-15T20:12:30;1.20;;;1.10;;
4391;SDS011;2210;51.938;8.488;2024-01-15T20:16:33;2.33;;;1.47;;
4391;SDS011;2210;51.938;8.488;2024-01-15T20:20:34;1.13;;;1.03;;
4391;SDS011;2210;51.938;8.488;2024-01-15T20:24:34;1.88;;;1.30;;
4391;SDS011;2210;51.938;8.488;2024-01-15T20:28:38;3.03;;;1.43;;
4391;SDS011;2210;51.938;8.488;2024-01-15T20:32:41;0.90;;;0.90;;
4391;SDS011;2210;51.938;8.488;2024-01-15T20:37:04;2.90;;;1.70;;
4391;SDS011;2210;51.938;8.488;2024-01-15T20:41:04;3.22;;;1.13;;
4391;SDS011;2210;51.938;8.488;2024-01-15T20:45:06;2.87;;;1.20;;
4391;SDS011;2210;51.938;8.488;2024-01-15T20:49:10;3.10;;;1.03;;
4391;SDS011;2210;51.938;8.488;2024-01-15T20:53:11;1.00;;;1.00;;
4391;SDS011;2210;51.938;8.488;2024-01-15T20:57:14;2.40;;;1.30;;
4391;SDS011;2210;51.938;8.488;2024-01-15T21:01:15;1.47;;;0.90;;
4391;SDS011;2210;51.938;8.488;2024-01-15T21:05:22;3.77;;;1.67;;
4391;SDS011;2210;51.938;8.488;2024-01-15T21:09:23;1.57;;;0.80;;
4391;SDS011;2210;51.938;8.488;2024-01-15T21:13:23;2.25;;;1.10;;
4391;SDS011;2210;51.938;8.488;2024-01-15T21:17:23;2.63;;;1.00;;
4391;SDS011;2210;51.938;8.488;2024-01-15T21:21:23;1.70;;;0.90;;
4391;SDS011;2210;51.938;8.488;2024-01-15T21:25:26;1.30;;;1.20;;
4391;SDS011;2210;51.938;8.488;2024-01-15T21:29:26;1.23;;;0.80;;
4391;SDS011;2210;51.938;8.488;2024-01-15T21:33:27;2.10;;;0.80;;
4391;SDS011;2210;51.938;8.488;2024-01-15T21:37:47;3.90;;;1.30;;
4391;SDS011;2210;51.938;8.488;2024-01-15T21:41:47;2.70;;;0.90;;
4391;SDS011;2210;51.938;8.488;2024-01-15T21:45:49;2.90;;;0.70;;
4391;SDS011;2210;51.938;8.488;2024-01-15T21:49:49;1.43;;;0.70;;
4391;SDS011;2210;51.938;8.488;2024-01-15T21:53:55;2.95;;;0.70;;
4391;SDS011;2210;51.938;8.488;2024-01-15T21:57:56;2.67;;;0.80;;
4391;SDS011;2210;51.938;8.488;2024-01-15T22:01:59;2.28;;;0.82;;
4391;SDS011;2210;51.938;8.488;2024-01-15T22:06:04;1.73;;;0.67;;
4391;SDS011;2210;51.938;8.488;2024-01-15T22:10:04;1.47;;;0.90;;
4391;SDS011;2210;51.938;8.488;2024-01-15T22:14:07;4.10;;;1.00;;
4391;SDS011;2210;51.938;8.488;2024-01-15T22:18:09;2.80;;;0.97;;
4391;SDS011;2210;51.938;8.488;2024-01-15T22:22:09;1.20;;;0.88;;
4391;SDS011;2210;51.938;8.488;2024-01-15T22:26:09;0.80;;;0.80;;
4391;SDS011;2210;51.938;8.488;2024-01-15T22:30:09;2.30;;;0.93;;
4391;SDS011;2210;51.938;8.488;2024-01-15T22:34:10;1.83;;;0.80;;
4391;SDS011;2210;51.938;8.488;2024-01-15T22:38:10;4.80;;;0.90;;
4391;SDS011;2210;51.938;8.488;2024-01-15T22:42:11;1.93;;;1.10;;
4391;SDS011;2210;51.938;8.488;2024-01-15T22:46:11;1.50;;;0.80;;
4391;SDS011;2210;51.938;8.488;2024-01-15T22:50:12;1.20;;;1.00;;
4391;SDS011;2210;51.938;8.488;2024-01-15T22:54:13;2.20;;;1.10;;
4391;SDS011;2210;51.938;8.488;2024-01-15T22:58:13;1.00;;;1.00;;
4391;SDS011;2210;51.938;8.488;2024-01-15T23:02:13;1.27;;;1.13;;
4391;SDS011;2210;51.938;8.488;2024-01-15T23:06:20;3.85;;;1.10;;
4391;SDS011;2210;51.938;8.488;2024-01-15T23:10:20;2.50;;;0.80;;
4391;SDS011;2210;51.938;8.488;2024-01-15T23:14:20;1.47;;;1.30;;
4391;SDS011;2210;51.938;8.488;2024-01-15T23:18:21;1.00;;;0.97;;
4391;SDS011;2210;51.938;8.488;2024-01-15T23:22:21;6.70;;;1.60;;
4391;SDS011;2210;51.938;8.488;2024-01-15T23:26:21;2.50;;;1.00;;
4391;SDS011;2210;51.938;8.488;2024-01-15T23:30:22;8.30;;;1.70;;
4391;SDS011;2210;51.938;8.488;2024-01-15T23:34:22;2.38;;;1.13;;
4391;SDS011;2210;51.938;8.488;2024-01-15T23:38:22;2.20;;;0.90;;
4391;SDS011;2210;51.938;8.488;2024-01-15T23:42:23;1.03;;;1.00;;
4391;SDS011;2210;51.938;8.488;2024-01-15T23:46:23;4.10;;;1.90;;
4391;SDS011;2210;51.938;8.488;2024-01-15T23:50:24;3.80;;;1.10;;
4391;SDS011;2210;51.938;8.488;2024-01-15T23:54:24;1.02;;;0.88;;
4391;SDS011;2210;51.938;8.488;2024-01-15T23:58:25;7.33;;;1.30;;
